createdAt,value
2018-07-17T00:00:12.617Z,25.40
2018-07-17T00:02:41.117Z,26.67
2018-07-17T00:05:10.322Z,26.23
2018-07-17T00:07:38.998Z,25.97
2018-07-17T00:10:08.840Z,26.23
2018-07-17T00:12:37.541Z,28.57
2018-07-17T00:15:06.150Z,30.37
2018-07-17T00:17:35.026Z,28.80
2018-07-17T00:20:03.582Z,26.87
2018-07-17T00:22:32.162Z,29.53
2018-07-17T00:25:00.654Z,26.80
2018-07-17T00:27:29.135Z,27.27
2018-07-17T00:29:57.694Z,31.47
2018-07-17T00:32:26.210Z,28.67
2018-07-17T00:34:54.742Z,27.60
2018-07-17T00:37:23.722Z,28.47
2018-07-17T00:39:51.930Z,28.40
2018-07-17T00:42:20.451Z,29.87
2018-07-17T00:44:48.983Z,30.13
2018-07-17T00:47:17.530Z,28.80
2018-07-17T00:49:46.012Z,31.23
2018-07-17T00:52:14.536Z,28.40
2018-07-17T00:54:43.122Z,30.90
2018-07-17T00:57:11.724Z,29.23
2018-07-17T00:59:40.202Z,30.47
2018-07-17T01:02:13.994Z,29.90
2018-07-17T01:04:47.676Z,29.43
2018-07-17T01:07:21.519Z,30.37
2018-07-17T01:09:55.267Z,28.00
2018-07-17T01:12:23.042Z,30.43
2018-07-17T01:15:09.493Z,29.70
2018-07-17T01:17:38.082Z,34.27
2018-07-17T01:20:06.885Z,29.37
2018-07-17T01:22:35.430Z,30.10
2018-07-17T01:25:04.106Z,30.70
2018-07-17T01:27:32.582Z,28.97
2018-07-17T01:30:01.081Z,28.73
2018-07-17T01:32:29.638Z,27.60
2018-07-17T01:34:58.485Z,28.77
2018-07-17T01:37:27.058Z,28.97
2018-07-17T01:39:55.630Z,27.17
2018-07-17T01:42:24.222Z,28.57
2018-07-17T01:44:52.978Z,27.97
2018-07-17T01:47:21.490Z,29.30
2018-07-17T01:49:49.992Z,28.77
2018-07-17T01:52:18.475Z,28.70
2018-07-17T01:54:47.206Z,27.00
2018-07-17T01:57:15.734Z,28.70
2018-07-17T01:59:44.214Z,28.47
2018-07-17T02:02:12.682Z,28.13
2018-07-17T02:04:41.301Z,28.77
2018-07-17T02:07:09.801Z,27.80
2018-07-17T02:09:38.310Z,28.80
2018-07-17T02:12:06.858Z,29.17
2018-07-17T02:14:35.367Z,28.03
2018-07-17T02:17:03.982Z,30.50
2018-07-17T02:19:32.490Z,30.67
2018-07-17T02:22:01.237Z,29.13
2018-07-17T02:24:29.714Z,31.73
2018-07-17T02:26:58.334Z,30.50
2018-07-17T02:29:26.859Z,29.90
2018-07-17T02:31:55.366Z,31.07
2018-07-17T02:34:23.853Z,31.90
2018-07-17T02:36:52.423Z,31.97
2018-07-17T02:39:21.060Z,34.17
2018-07-17T02:41:49.542Z,35.57
2018-07-17T02:44:18.113Z,33.73
2018-07-17T02:46:46.615Z,31.30
2018-07-17T02:49:15.106Z,31.70
2018-07-17T02:51:43.598Z,32.80
2018-07-17T02:54:12.077Z,31.63
2018-07-17T02:56:40.590Z,28.87
2018-07-17T02:59:09.145Z,31.30
2018-07-17T03:01:37.645Z,30.77
2018-07-17T03:04:06.465Z,29.23
2018-07-17T03:06:34.949Z,31.13
2018-07-17T03:09:03.562Z,30.97
2018-07-17T03:11:32.122Z,33.63
2018-07-17T03:14:00.603Z,33.13
2018-07-17T03:16:29.137Z,33.80
2018-07-17T03:18:57.665Z,34.30
2018-07-17T03:21:26.200Z,32.97
2018-07-17T03:23:54.697Z,34.80
2018-07-17T03:26:23.286Z,36.07
2018-07-17T03:28:51.859Z,39.97
2018-07-17T03:31:20.579Z,39.80
2018-07-17T03:33:49.134Z,43.47
2018-07-17T03:36:17.747Z,38.80
2018-07-17T03:38:46.231Z,37.57
2018-07-17T03:41:14.742Z,43.57
2018-07-17T03:43:43.291Z,38.10
2018-07-17T03:46:11.787Z,41.83
2018-07-17T03:48:40.255Z,43.53
2018-07-17T03:51:08.748Z,47.30
2018-07-17T03:53:37.258Z,44.40
2018-07-17T03:56:06.577Z,42.13
2018-07-17T03:58:35.183Z,41.23
2018-07-17T04:01:03.724Z,43.27
2018-07-17T04:03:32.219Z,40.00
2018-07-17T04:06:00.734Z,36.83
2018-07-17T04:08:29.211Z,38.10
2018-07-17T04:10:57.791Z,34.67
2018-07-17T04:13:26.384Z,34.53
2018-07-17T04:15:54.923Z,30.47
2018-07-17T04:18:23.450Z,28.00
2018-07-17T04:20:52.172Z,28.87
2018-07-17T04:23:20.682Z,26.07
2018-07-17T04:25:49.219Z,27.63
2018-07-17T04:28:17.709Z,27.43
2018-07-17T04:30:46.250Z,28.27
2018-07-17T04:33:14.785Z,26.60
2018-07-17T04:35:43.287Z,29.90
2018-07-17T04:38:11.838Z,25.73
2018-07-17T04:40:40.315Z,25.90
2018-07-17T04:43:08.804Z,25.90
2018-07-17T04:45:37.354Z,25.83
2018-07-17T04:48:05.962Z,27.13
2018-07-17T04:50:34.543Z,27.67
2018-07-17T04:53:03.147Z,25.43
2018-07-17T04:55:32.115Z,25.93
2018-07-17T04:58:01.672Z,27.73
2018-07-17T05:00:30.139Z,29.47
2018-07-17T05:02:58.662Z,28.50
2018-07-17T05:05:27.181Z,28.17
2018-07-17T05:07:55.711Z,30.37
2018-07-17T05:10:24.214Z,29.83
2018-07-17T05:12:53.280Z,29.97
2018-07-17T05:15:21.758Z,28.03
2018-07-17T05:17:50.631Z,26.90
2018-07-17T05:20:19.212Z,26.20
2018-07-17T05:22:47.804Z,26.70
2018-07-17T05:25:16.262Z,27.13
2018-07-17T05:27:44.814Z,29.50
2018-07-17T05:30:13.351Z,30.80
2018-07-17T05:32:41.871Z,30.37
2018-07-17T05:35:10.518Z,29.47
2018-07-17T05:37:39.163Z,28.73
2018-07-17T05:40:08.089Z,29.87
2018-07-17T05:42:37.350Z,27.23
2018-07-17T05:45:06.041Z,27.80
2018-07-17T05:47:38.834Z,25.90
2018-07-17T05:50:07.536Z,25.47
2018-07-17T05:52:37.442Z,28.07
2018-07-17T05:55:05.954Z,30.40
2018-07-17T05:57:34.481Z,31.17
2018-07-17T06:00:03.102Z,31.87
2018-07-17T06:02:32.302Z,32.77
2018-07-17T06:05:01.018Z,28.83
2018-07-17T06:07:29.518Z,26.87
2018-07-17T06:09:58.042Z,25.47
2018-07-17T06:12:26.630Z,25.77
2018-07-17T06:14:55.153Z,26.13
2018-07-17T06:17:23.695Z,28.53
2018-07-17T06:19:52.254Z,33.17
2018-07-17T06:22:22.598Z,36.00
2018-07-17T06:24:51.127Z,43.33
2018-07-17T06:27:19.775Z,45.60
2018-07-17T06:29:48.295Z,47.13
2018-07-17T06:32:16.869Z,50.93
2018-07-17T06:34:45.406Z,50.33
2018-07-17T06:37:13.958Z,48.57
2018-07-17T06:39:42.426Z,46.73
2018-07-17T06:42:10.967Z,40.43
2018-07-17T06:44:39.263Z,38.87
2018-07-17T06:47:07.803Z,42.27
2018-07-17T06:49:36.336Z,41.47
2018-07-17T06:52:04.931Z,40.03
2018-07-17T06:54:33.491Z,40.67
2018-07-17T06:57:02.012Z,40.10
2018-07-17T06:59:30.677Z,39.97
2018-07-17T07:01:59.198Z,41.73
2018-07-17T07:04:27.766Z,38.53
2018-07-17T07:06:56.362Z,37.13
2018-07-17T07:09:24.982Z,35.07
2018-07-17T07:11:53.474Z,35.03
2018-07-17T07:14:22.012Z,33.57
2018-07-17T07:16:50.526Z,34.10
2018-07-17T07:19:19.086Z,34.17
2018-07-17T07:21:47.618Z,32.67
2018-07-17T07:24:16.110Z,30.67
2018-07-17T07:26:44.686Z,30.37
2018-07-17T07:29:13.175Z,31.60
2018-07-17T07:31:41.830Z,30.13
2018-07-17T07:34:10.334Z,29.27
2018-07-17T07:36:39.036Z,28.50
2018-07-17T07:39:09.205Z,25.37
2018-07-17T07:41:38.030Z,25.07
2018-07-17T07:44:08.023Z,27.07
2018-07-17T07:46:36.748Z,26.07
2018-07-17T07:49:05.576Z,24.73
2018-07-17T07:51:34.042Z,26.90
2018-07-17T07:54:02.670Z,28.63
2018-07-17T07:56:31.209Z,27.57
2018-07-17T07:58:59.990Z,28.53
2018-07-17T08:01:28.561Z,30.73
2018-07-17T08:03:57.236Z,31.17
2018-07-17T08:06:25.768Z,29.20
2018-07-17T08:08:54.372Z,29.47
2018-07-17T08:11:23.003Z,31.27
2018-07-17T08:13:51.576Z,31.00
2018-07-17T08:16:20.166Z,29.10
2018-07-17T08:18:48.792Z,30.20
2018-07-17T08:21:17.362Z,30.70
2018-07-17T08:23:45.938Z,31.00
2018-07-17T08:26:14.514Z,29.90
2018-07-17T08:28:43.206Z,27.87
2018-07-17T08:31:11.747Z,29.03
2018-07-17T08:33:40.274Z,29.60
2018-07-17T08:36:10.512Z,29.40
2018-07-17T08:38:39.284Z,30.67
2018-07-17T08:41:08.363Z,28.47
2018-07-17T08:43:37.123Z,25.47
2018-07-17T08:46:05.667Z,25.03
2018-07-17T08:48:34.240Z,22.00
2018-07-17T08:51:02.811Z,20.93
2018-07-17T08:53:32.028Z,21.10
2018-07-17T08:56:00.984Z,21.43
2018-07-17T08:58:29.550Z,20.17
2018-07-17T09:00:58.145Z,18.60
2018-07-17T09:03:26.850Z,18.43
2018-07-17T09:05:55.470Z,17.63
2018-07-17T09:08:24.176Z,13.93
2018-07-17T09:10:52.813Z,13.63
2018-07-17T09:13:21.436Z,11.60
2018-07-17T09:15:50.365Z,12.17
2018-07-17T09:18:19.827Z,11.10
2018-07-17T09:20:48.450Z,12.30
2018-07-17T09:23:16.774Z,13.53
2018-07-17T09:25:45.465Z,11.60
2018-07-17T09:28:14.095Z,10.80
2018-07-17T09:30:47.960Z,10.57
2018-07-17T09:33:16.632Z,10.60
2018-07-17T09:35:45.137Z,10.23
2018-07-17T09:38:13.664Z,11.43
2018-07-17T09:40:42.993Z,14.17
2018-07-17T09:43:11.578Z,12.87
2018-07-17T09:45:40.157Z,10.77
2018-07-17T09:48:08.894Z,9.30
2018-07-17T09:50:37.606Z,8.70
2018-07-17T09:53:06.148Z,8.20
2018-07-17T09:55:34.775Z,9.90
2018-07-17T09:58:04.386Z,8.37
2018-07-17T10:02:41.512Z,7.37
2018-07-17T10:05:10.110Z,7.97
2018-07-17T10:07:38.679Z,7.20
2018-07-17T10:10:07.350Z,6.90
2018-07-17T10:12:35.903Z,7.33
2018-07-17T10:15:04.756Z,9.47
2018-07-17T10:17:33.338Z,10.20
2018-07-17T10:20:02.078Z,6.67
2018-07-17T10:22:30.591Z,6.50
2018-07-17T10:24:59.136Z,6.03
2018-07-17T10:27:27.765Z,7.40
2018-07-17T10:29:56.400Z,5.60
2018-07-17T10:32:24.934Z,5.13
2018-07-17T10:34:53.621Z,5.90
2018-07-17T10:37:22.256Z,5.03
2018-07-17T10:39:50.828Z,4.77
2018-07-17T10:42:19.639Z,5.37
2018-07-17T10:44:48.237Z,4.70
2018-07-17T10:47:16.917Z,5.90
2018-07-17T10:49:45.574Z,5.10
2018-07-17T10:52:14.386Z,5.90
2018-07-17T10:54:42.978Z,5.60
2018-07-17T10:57:11.726Z,5.73
2018-07-17T10:59:40.326Z,5.87
2018-07-17T11:02:10.286Z,6.57
2018-07-17T11:04:38.890Z,6.10
2018-07-17T11:07:07.827Z,5.03
2018-07-17T11:09:36.380Z,4.93
2018-07-17T11:12:05.017Z,5.23
2018-07-17T11:14:33.602Z,6.73
2018-07-17T11:17:04.185Z,4.63
2018-07-17T11:19:33.575Z,4.77
2018-07-17T11:22:03.234Z,4.40
2018-07-17T11:24:31.938Z,4.53
2018-07-17T11:27:00.563Z,5.03
2018-07-17T11:29:29.177Z,3.97
2018-07-17T11:31:57.859Z,3.40
2018-07-17T11:34:26.443Z,3.27
2018-07-17T11:36:55.252Z,3.03
2018-07-17T11:39:23.879Z,3.37
2018-07-17T11:41:52.836Z,3.33
2018-07-17T11:44:21.716Z,3.47
2018-07-17T11:46:50.398Z,3.67
2018-07-17T11:49:19.104Z,3.33
2018-07-17T11:51:47.682Z,3.00
2018-07-17T11:54:16.364Z,3.33
2018-07-17T11:56:45.220Z,3.00
2018-07-17T11:59:13.948Z,3.40
2018-07-17T12:01:42.559Z,3.97
2018-07-17T12:04:11.180Z,4.40
2018-07-17T12:06:39.768Z,4.20
2018-07-17T12:09:09.155Z,4.17
2018-07-17T12:11:38.047Z,4.67
2018-07-17T12:14:06.745Z,4.33
2018-07-17T12:16:35.433Z,4.47
2018-07-17T12:19:04.079Z,4.53
2018-07-17T12:21:32.747Z,5.43
2018-07-17T12:24:01.417Z,4.43
2018-07-17T12:26:29.963Z,4.90
2018-07-17T12:28:58.606Z,5.33
2018-07-17T12:31:27.544Z,5.50
2018-07-17T12:33:56.276Z,5.77
2018-07-17T12:36:24.921Z,5.17
2018-07-17T12:38:53.858Z,4.53
2018-07-17T12:41:22.170Z,5.40
2018-07-17T12:43:50.754Z,5.10
2018-07-17T12:46:19.339Z,4.80
2018-07-17T12:48:47.990Z,5.70
2018-07-17T12:51:16.791Z,5.47
2018-07-17T12:53:45.344Z,3.93
2018-07-17T12:56:14.020Z,4.10
2018-07-17T12:58:42.583Z,4.30
2018-07-17T13:01:11.167Z,4.67
2018-07-17T13:03:40.125Z,4.67
2018-07-17T13:06:08.682Z,5.80
2018-07-17T13:08:37.250Z,5.50
2018-07-17T13:11:05.845Z,6.67
2018-07-17T13:13:34.399Z,6.10
2018-07-17T13:16:03.649Z,6.40
2018-07-17T13:18:32.393Z,5.10
2018-07-17T13:21:00.971Z,6.57
2018-07-17T13:23:29.615Z,6.03
2018-07-17T13:25:58.193Z,6.00
2018-07-17T13:28:26.825Z,6.40
2018-07-17T13:30:55.405Z,6.23
2018-07-17T13:33:24.001Z,6.97
2018-07-17T13:35:52.709Z,7.23
2018-07-17T13:38:21.277Z,7.30
2018-07-17T13:40:49.953Z,6.30
2018-07-17T13:43:18.546Z,7.33
2018-07-17T13:45:47.158Z,7.47
2018-07-17T13:48:15.755Z,8.13
2018-07-17T13:50:44.471Z,9.10
2018-07-17T13:53:13.222Z,9.20
2018-07-17T13:55:42.351Z,9.30
2018-07-17T13:58:10.947Z,8.97
2018-07-17T14:00:39.530Z,9.43
2018-07-17T14:03:08.173Z,10.17
2018-07-17T14:05:36.797Z,10.00
2018-07-17T14:08:05.636Z,10.30
2018-07-17T14:10:34.502Z,10.10
2018-07-17T14:13:03.093Z,10.63
2018-07-17T14:15:31.738Z,11.30
2018-07-17T14:18:00.307Z,11.33
2018-07-17T14:20:28.924Z,13.20
2018-07-17T14:22:57.587Z,12.03
2018-07-17T14:25:26.121Z,12.23
2018-07-17T14:27:54.842Z,12.67
2018-07-17T14:30:23.383Z,12.23
2018-07-17T14:32:52.117Z,12.73
2018-07-17T14:35:20.720Z,12.63
2018-07-17T14:37:49.393Z,12.30
2018-07-17T14:40:18.031Z,11.73
2018-07-17T14:42:47.083Z,10.67
2018-07-17T14:45:15.762Z,12.23
2018-07-17T14:47:44.344Z,12.43
2018-07-17T14:50:13.864Z,12.97
2018-07-17T14:52:42.479Z,14.57
2018-07-17T14:55:11.781Z,15.37
2018-07-17T14:57:41.090Z,15.10
2018-07-17T15:00:10.684Z,14.60
2018-07-17T15:02:39.619Z,14.80
2018-07-17T15:05:09.189Z,15.10
2018-07-17T15:07:37.922Z,13.53
2018-07-17T15:10:07.355Z,15.07
2018-07-17T15:12:36.177Z,11.83
2018-07-17T15:15:05.410Z,14.27
2018-07-17T15:17:33.598Z,14.23
2018-07-17T15:20:02.200Z,14.23
2018-07-17T15:22:30.908Z,14.03
2018-07-17T15:24:59.591Z,11.73
2018-07-17T15:27:28.892Z,12.33
2018-07-17T15:29:57.508Z,13.60
2018-07-17T15:32:27.136Z,14.90
2018-07-17T15:34:55.837Z,15.43
2018-07-17T15:37:24.184Z,15.27
2018-07-17T15:39:52.800Z,13.77
2018-07-17T15:42:21.627Z,14.70
2018-07-17T15:44:50.315Z,15.00
2018-07-17T15:47:19.595Z,15.30
2018-07-17T15:49:48.239Z,13.90
2018-07-17T15:52:17.157Z,13.37
2018-07-17T15:54:45.750Z,12.87
2018-07-17T15:57:14.333Z,12.37
2018-07-17T15:59:43.030Z,12.93
2018-07-17T16:02:11.657Z,12.37
2018-07-17T16:04:40.343Z,12.33
2018-07-17T16:07:08.910Z,12.57
2018-07-17T16:09:37.646Z,13.40
2018-07-17T16:12:06.353Z,13.00
2018-07-17T16:14:34.975Z,12.30
2018-07-17T16:17:03.550Z,12.90
2018-07-17T16:19:32.291Z,13.00
2018-07-17T16:22:01.203Z,12.00
2018-07-17T16:24:30.084Z,12.70
2018-07-17T16:26:58.652Z,13.33
2018-07-17T16:29:27.270Z,14.13
2018-07-17T16:31:55.958Z,15.63
2018-07-17T16:34:25.469Z,18.57
2018-07-17T16:36:54.100Z,19.10
2018-07-17T16:39:22.630Z,18.17
2018-07-17T16:41:51.234Z,18.93
2018-07-17T16:44:19.984Z,20.03
2018-07-17T16:46:48.195Z,20.37
2018-07-17T16:49:16.880Z,20.43
2018-07-17T16:51:45.512Z,21.60
2018-07-17T16:54:14.313Z,18.47
2018-07-17T16:56:42.796Z,19.20
2018-07-17T16:59:11.155Z,19.63
2018-07-17T17:01:39.911Z,21.40
2018-07-17T17:04:08.719Z,21.67
2018-07-17T17:06:37.692Z,18.83
2018-07-17T17:09:09.984Z,19.03
2018-07-17T17:11:38.568Z,18.50
2018-07-17T17:14:07.252Z,16.83
2018-07-17T17:16:36.172Z,16.30
2018-07-17T17:19:04.920Z,19.13
2018-07-17T17:21:33.582Z,19.97
2018-07-17T17:24:02.447Z,21.03
2018-07-17T17:26:31.049Z,22.57
2018-07-17T17:28:59.658Z,24.07
2018-07-17T17:31:28.497Z,24.53
2018-07-17T17:33:57.149Z,24.03
2018-07-17T17:36:26.041Z,22.47
2018-07-17T17:38:54.657Z,24.87
2018-07-17T17:41:23.372Z,27.57
2018-07-17T17:43:52.067Z,28.87
2018-07-17T17:46:20.834Z,31.47
2018-07-17T17:48:49.687Z,34.70
2018-07-17T17:51:18.430Z,33.70
2018-07-17T17:53:47.069Z,35.27
2018-07-17T17:56:15.691Z,35.60
2018-07-17T17:58:44.897Z,34.70
2018-07-17T18:01:13.537Z,38.70
2018-07-17T18:03:42.913Z,35.00
2018-07-17T18:06:11.705Z,34.60
2018-07-17T18:08:40.503Z,34.67
2018-07-17T18:11:09.284Z,33.30
2018-07-17T18:13:37.998Z,33.50
2018-07-17T18:16:06.633Z,35.00
2018-07-17T18:18:35.290Z,36.63
2018-07-17T18:21:04.177Z,32.97
2018-07-17T18:23:32.774Z,33.83
2018-07-17T18:26:01.403Z,33.63
2018-07-17T18:28:30.148Z,34.23
2018-07-17T18:30:59.304Z,32.47
2018-07-17T18:33:28.242Z,33.70
2018-07-17T18:35:56.762Z,32.63
2018-07-17T18:38:25.292Z,32.20
2018-07-17T18:40:53.952Z,33.33
2018-07-17T18:43:22.593Z,33.90
2018-07-17T18:45:51.205Z,32.10
2018-07-17T18:48:19.975Z,33.10
2018-07-17T18:50:48.777Z,30.77
2018-07-17T18:53:17.314Z,32.37
2018-07-17T18:55:45.966Z,29.10
2018-07-17T18:58:14.741Z,30.27
2018-07-17T19:00:44.156Z,29.77
2018-07-17T19:03:12.925Z,30.53
2018-07-17T19:05:41.480Z,30.17
2018-07-17T19:08:10.091Z,32.53
2018-07-17T19:10:38.662Z,31.83
2018-07-17T19:13:07.335Z,33.40
2018-07-17T19:15:36.033Z,31.77
2018-07-17T19:18:04.774Z,33.33
2018-07-17T19:20:33.325Z,32.80
2018-07-17T19:23:02.153Z,31.93
2018-07-17T19:25:30.780Z,33.73
2018-07-17T19:27:59.731Z,30.70
2018-07-17T19:30:28.367Z,30.23
2018-07-17T19:32:56.942Z,31.23
2018-07-17T19:35:25.588Z,29.07
2018-07-17T19:37:54.222Z,30.77
2018-07-17T19:40:22.787Z,29.33
2018-07-17T19:42:51.323Z,29.93
2018-07-17T19:45:19.915Z,29.67
2018-07-17T19:47:48.547Z,30.30
2018-07-17T19:50:17.180Z,32.47
2018-07-17T19:52:45.757Z,30.13
2018-07-17T19:55:14.412Z,29.73
2018-07-17T19:57:43.295Z,28.40
2018-07-17T20:00:11.897Z,26.80
2018-07-17T20:02:40.539Z,26.03
2018-07-17T20:05:09.151Z,25.80
2018-07-17T20:07:37.811Z,26.40
2018-07-17T20:10:06.478Z,25.10
2018-07-17T20:12:35.111Z,22.37
2018-07-17T20:15:03.735Z,22.70
2018-07-17T20:17:32.577Z,20.70
2018-07-17T20:20:01.207Z,19.33
2018-07-17T20:22:29.795Z,19.83
2018-07-17T20:24:58.379Z,18.77
2018-07-17T20:27:26.999Z,18.13
2018-07-17T20:29:55.538Z,18.37
2018-07-17T20:32:24.052Z,16.97
2018-07-17T20:34:52.675Z,17.40
2018-07-17T20:37:21.206Z,16.70
2018-07-17T20:39:49.806Z,16.87
2018-07-17T20:42:18.410Z,16.67
2018-07-17T20:44:47.093Z,16.63
2018-07-17T20:47:16.571Z,17.27
2018-07-17T20:49:45.145Z,15.63
2018-07-17T20:52:13.674Z,15.77
2018-07-17T20:54:42.587Z,14.53
2018-07-17T20:57:11.234Z,15.37
2018-07-17T20:59:39.825Z,15.03
2018-07-17T21:02:08.726Z,14.30
2018-07-17T21:04:37.279Z,13.77
2018-07-17T21:07:05.859Z,13.43
2018-07-17T21:09:34.438Z,14.30
2018-07-17T21:12:03.049Z,13.23
2018-07-17T21:14:31.730Z,13.80
2018-07-17T21:17:00.296Z,14.57
2018-07-17T21:19:28.918Z,14.67
2018-07-17T21:21:57.502Z,14.63
2018-07-17T21:24:26.084Z,15.10
2018-07-17T21:26:55.147Z,15.27
2018-07-17T21:29:23.698Z,16.83
2018-07-17T21:31:52.166Z,17.23
2018-07-17T21:34:20.737Z,17.03
2018-07-17T21:36:49.358Z,17.37
2018-07-17T21:39:17.925Z,18.07
2018-07-17T21:41:46.494Z,18.33
2018-07-17T21:44:15.037Z,18.17
2018-07-17T21:46:43.582Z,18.00
2018-07-17T21:49:12.110Z,18.43
2018-07-17T21:51:40.654Z,18.20
2018-07-17T21:54:09.466Z,18.43
2018-07-17T21:56:38.042Z,18.37
2018-07-17T21:59:06.619Z,18.33
2018-07-17T22:01:35.263Z,17.50
2018-07-17T22:04:03.909Z,16.97
2018-07-17T22:06:32.508Z,14.60
2018-07-17T22:09:01.143Z,14.60
2018-07-17T22:11:29.671Z,13.30
2018-07-17T22:13:58.226Z,13.03
2018-07-17T22:16:26.917Z,11.57
2018-07-17T22:18:55.530Z,12.30
2018-07-17T22:21:24.083Z,12.73
2018-07-17T22:23:52.792Z,11.87
2018-07-17T22:26:21.400Z,13.47
2018-07-17T22:28:49.987Z,11.50
2018-07-17T22:31:18.633Z,12.30
2018-07-17T22:33:47.252Z,11.20
2018-07-17T22:36:15.823Z,11.30
2018-07-17T22:38:44.474Z,12.47
2018-07-17T22:41:13.034Z,11.83
2018-07-17T22:43:41.646Z,13.50
2018-07-17T22:46:10.238Z,13.60
2018-07-17T22:48:38.815Z,15.57
2018-07-17T22:51:07.505Z,17.17
2018-07-17T22:53:36.781Z,17.23
2018-07-17T22:56:05.592Z,18.53
2018-07-17T22:58:34.174Z,18.20
2018-07-17T23:01:02.825Z,19.20
2018-07-17T23:03:31.379Z,19.87
2018-07-17T23:05:59.925Z,19.77
2018-07-17T23:08:28.630Z,21.07
2018-07-17T23:10:57.272Z,20.77
2018-07-17T23:13:25.970Z,20.07
2018-07-17T23:15:54.711Z,20.20
2018-07-17T23:18:23.356Z,20.73
2018-07-17T23:20:52.019Z,20.40
2018-07-17T23:23:20.546Z,19.80
2018-07-17T23:25:49.063Z,19.97
2018-07-17T23:28:17.736Z,21.17
2018-07-17T23:30:46.266Z,22.17
2018-07-17T23:33:15.088Z,21.17
2018-07-17T23:35:43.717Z,21.67
2018-07-17T23:38:12.378Z,21.60
2018-07-17T23:40:40.944Z,20.73
2018-07-17T23:43:09.488Z,22.37
2018-07-17T23:45:38.162Z,22.27
2018-07-17T23:48:06.726Z,20.60
2018-07-17T23:50:35.294Z,21.63
2018-07-17T23:53:03.849Z,22.07
2018-07-17T23:55:32.462Z,22.40
2018-07-17T23:58:01.039Z,22.73
